Monday, April 23, 2018, 1:57 AM GMT
Back to Local

CYUL, Montreal / Pierre Elliot Trudeau International Airport, Que

Location: , , Canada Lat: 45.467
Local Time: 1:57 AM GMT ( 1:57 GMT) Lon: -73.75
Time Zone: GMT Elev: 101 ft

Show me the last for .
Show Decoded

2018-04-23 01:00 METAR CYUL 230100Z 27005KT 15SM SKC 09/M09 A3037 RMK SLP287 =
2018-04-23 00:00 METAR CYUL 230000Z 25005KT 30SM FEW250 11/M08 A3035 RMK CI1 CI TR SLP280 =
2018-04-22 23:00 METAR CYUL 222300Z 33006KT 270V350 30SM SKC 13/M12 A3034 RMK SLP275 =
2018-04-22 22:00 METAR CYUL 222200Z 22005KT 210V300 30SM SKC 14/M11 A3034 RMK SLP276 =
2018-04-22 21:00 METAR CYUL 222100Z VRB06KT 30SM SKC 14/M10 A3035 RMK SLP279 =
2018-04-22 20:00 METAR CYUL 222000Z VRB02KT 30SM SKC 14/M10 A3036 RMK SLP283 =
2018-04-22 19:00 METAR CYUL 221900Z 30005G18KT 30SM SKC 13/M11 A3037 RMK SLP288 =
2018-04-22 18:00 METAR CYUL 221800Z 30011KT 250V360 30SM FEW220 13/M08 A3039 RMK CI1 CI TR SLP292
                 =
2018-04-22 17:00 METAR CYUL 221700Z 24006KT 210V270 30SM SKC 12/M06 A3039 RMK SLP295 =
2018-04-22 16:00 METAR CYUL 221600Z 28009G15KT 230V310 30SM SKC 11/M06 A3041 RMK SLP300 =
2018-04-22 15:00 METAR CYUL 221500Z VRB05KT 30SM SKC 09/M07 A3042 RMK SLP302 =
2018-04-22 14:00 METAR CYUL 221400Z VRB05KT 30SM SKC 08/M07 A3042 RMK SLP304 =
2018-04-22 13:00 METAR CYUL 221300Z VRB03KT 30SM SKC 07/M07 A3042 RMK SLP304 =
2018-04-22 12:00 METAR CYUL 221200Z 35003KT 290V020 30SM SKC 04/M06 A3041 RMK SLP301 =
2018-04-22 11:00 METAR CYUL 221100Z 29002KT 30SM SKC 01/M06 A3040 RMK SLP297 =
2018-04-22 10:00 METAR CYUL 221000Z 35002KT 15SM SKC 00/M07 A3038 RMK SLP290 =
2018-04-22 09:00 METAR CYUL 220900Z 34004KT 15SM SKC 01/M08 A3037 RMK SLP287 =
2018-04-22 08:00 METAR CYUL 220800Z 30005KT 15SM SKC 01/M08 A3036 RMK SLP284 =
2018-04-22 07:00 METAR CYUL 220700Z 31003KT 15SM SKC 01/M07 A3035 RMK SLP281 =
2018-04-22 06:00 METAR CYUL 220600Z 31005KT 15SM SKC 02/M07 A3035 RMK SLP279 =
2018-04-22 05:00 METAR CYUL 220500Z 34004KT 15SM SKC 03/M07 A3034 RMK SLP278 =
2018-04-22 04:00 METAR CYUL 220400Z 34006KT 15SM SKC 05/M08 A3033 RMK SLP273 =
2018-04-22 03:00 METAR CYUL 220300Z 31007KT 15SM SKC 07/M08 A3032 RMK SLP269 =
2018-04-22 02:00 METAR CYUL 220200Z 29007KT 15SM SKC 07/M08 A3031 RMK SLP267 =

Support USWX by starting your Amazon purchase here.